Time;durP1;ratioP1;P1;durP2;ratioP2;P2;SDS_P1;SDS_P2;PMS_P1;PMS_P2;Temp;Humidity;BMP_temperature;BMP_pressure;BME280_temperature;BME280_humidity;BME280_pressure;Samples;Min_cycle;Max_cycle;Signal;HPM_P1;HPM_P2
2021/09/16 00:00:43;;;;;;;0.93;0.82;;;;;;;;;;5086783;28;20525;-56
2021/09/16 00:03:10;;;;;;;0.93;0.68;;;;;;;;;;5086455;28;20024;-56
2021/09/16 00:05:36;;;;;;;1.15;0.70;;;;;;;;;;5086738;28;20028;-55
2021/09/16 00:08:02;;;;;;;1.05;0.60;;;;;;;;;;5081575;28;20023;-56
2021/09/16 00:10:28;;;;;;;0.60;0.50;;;;;;;;;;5066408;28;20024;-56
2021/09/16 00:12:54;;;;;;;0.73;0.70;;;;;;;;;;5066219;28;20025;-56
2021/09/16 00:15:20;;;;;;;0.50;0.50;;;;;;;;;;5066319;28;20029;-56
2021/09/16 00:17:46;;;;;;;0.80;0.52;;;;;;;;;;5066315;28;20044;-54
2021/09/16 00:20:12;;;;;;;0.60;0.60;;;;;;;;;;5065286;28;20032;-56
2021/09/16 00:22:38;;;;;;;0.85;0.60;;;;;;;;;;5066255;28;20020;-56
2021/09/16 00:25:06;;;;;;;0.63;0.57;;;;;;;;;;5065523;28;20040;-57
2021/09/16 00:27:32;;;;;;;0.63;0.63;;;;;;;;;;5066798;28;20107;-54
2021/09/16 00:29:58;;;;;;;0.73;0.73;;;;;;;;;;5065977;28;20036;-56
2021/09/16 00:32:24;;;;;;;0.70;0.70;;;;;;;;;;5065962;28;20410;-55
2021/09/16 00:34:50;;;;;;;1.05;0.93;;;;;;;;;;5065506;28;20033;-56
2021/09/16 00:37:16;;;;;;;3.30;1.23;;;;;;;;;;5065158;28;20048;-56
2021/09/16 00:39:42;;;;;;;1.20;0.90;;;;;;;;;;5065838;28;20538;-55
2021/09/16 00:42:09;;;;;;;1.95;0.90;;;;;;;;;;5065738;28;20036;-55
2021/09/16 00:44:35;;;;;;;1.33;0.77;;;;;;;;;;5066078;28;20141;-56
2021/09/16 00:47:01;;;;;;;0.88;0.70;;;;;;;;;;5066399;28;20032;-56
2021/09/16 00:49:27;;;;;;;1.17;0.80;;;;;;;;;;5066162;28;20032;-57
2021/09/16 00:51:53;;;;;;;1.00;0.70;;;;;;;;;;5064376;28;20399;-56
2021/09/16 00:54:20;;;;;;;1.08;0.80;;;;;;;;;;5065769;28;20033;-56
2021/09/16 00:56:48;;;;;;;1.85;0.70;;;;;;;;;;5065861;28;20104;-55
2021/09/16 00:59:15;;;;;;;1.83;0.90;;;;;;;;;;5065650;28;20025;-56
2021/09/16 01:01:41;;;;;;;0.82;0.65;;;;;;;;;;5066733;28;20036;-56
2021/09/16 01:04:07;;;;;;;1.02;0.95;;;;;;;;;;5069327;28;20394;-55
2021/09/16 01:06:33;;;;;;;0.68;0.60;;;;;;;;;;5069708;28;20043;-56
2021/09/16 01:08:59;;;;;;;1.00;0.60;;;;;;;;;;5069770;28;20119;-56
2021/09/16 01:11:25;;;;;;;1.30;0.88;;;;;;;;;;5069267;28;20372;-56
2021/09/16 01:13:51;;;;;;;1.30;0.70;;;;;;;;;;5069208;28;20020;-56
2021/09/16 01:16:17;;;;;;;1.08;0.80;;;;;;;;;;5069521;28;20703;-57
2021/09/16 01:18:44;;;;;;;1.30;0.80;;;;;;;;;;5068975;28;20104;-56
2021/09/16 01:21:11;;;;;;;1.80;0.93;;;;;;;;;;5068476;28;20476;-56
2021/09/16 01:23:37;;;;;;;0.95;0.70;;;;;;;;;;5069010;28;20067;-54
2021/09/16 01:26:03;;;;;;;1.08;0.88;;;;;;;;;;5069458;28;20036;-52
2021/09/16 01:28:29;;;;;;;0.63;0.60;;;;;;;;;;5069806;28;20453;-53
2021/09/16 01:30:55;;;;;;;1.88;0.70;;;;;;;;;;5068963;28;20364;-54
2021/09/16 01:33:21;;;;;;;1.98;0.75;;;;;;;;;;5068849;28;20081;-53
2021/09/16 01:35:47;;;;;;;1.13;0.80;;;;;;;;;;5069164;28;20514;-54
2021/09/16 01:38:13;;;;;;;0.80;0.60;;;;;;;;;;5068643;28;20024;-53
2021/09/16 01:40:39;;;;;;;2.03;1.10;;;;;;;;;;5068965;28;20491;-53
2021/09/16 01:43:05;;;;;;;0.60;0.60;;;;;;;;;;5068736;28;20126;-53
2021/09/16 01:45:31;;;;;;;1.10;0.80;;;;;;;;;;5069594;28;20087;-53
2021/09/16 01:47:57;;;;;;;1.13;0.77;;;;;;;;;;5068804;28;20300;-53
2021/09/16 01:50:24;;;;;;;1.00;0.75;;;;;;;;;;5071324;28;20020;-53
2021/09/16 01:52:51;;;;;;;0.70;0.70;;;;;;;;;;5088999;28;20028;-54
2021/09/16 01:55:17;;;;;;;2.17;1.08;;;;;;;;;;5089095;28;20032;-53
2021/09/16 01:57:43;;;;;;;2.72;1.15;;;;;;;;;;5089096;28;20024;-53
2021/09/16 02:00:10;;;;;;;0.82;0.82;;;;;;;;;;5088464;28;20028;-54
2021/09/16 02:02:36;;;;;;;1.33;0.90;;;;;;;;;;5089104;28;20407;-54
2021/09/16 02:05:03;;;;;;;3.22;1.05;;;;;;;;;;5089246;28;20077;-53
2021/09/16 02:07:29;;;;;;;0.90;0.90;;;;;;;;;;5089451;28;20678;-53
2021/09/16 02:09:55;;;;;;;1.40;1.00;;;;;;;;;;5088447;28;20028;-53
2021/09/16 02:12:21;;;;;;;2.05;0.90;;;;;;;;;;5088670;28;20059;-54
2021/09/16 02:14:48;;;;;;;2.70;0.70;;;;;;;;;;5087489;28;20156;-52
2021/09/16 02:17:14;;;;;;;1.13;0.90;;;;;;;;;;5088488;28;20455;-54
2021/09/16 02:19:40;;;;;;;0.73;0.60;;;;;;;;;;5074839;28;20028;-54
2021/09/16 02:22:06;;;;;;;1.42;0.80;;;;;;;;;;5067997;28;20050;-53
2021/09/16 02:24:32;;;;;;;0.63;0.63;;;;;;;;;;5068750;28;20036;-53
2021/09/16 02:26:58;;;;;;;1.05;0.88;;;;;;;;;;5067478;28;20074;-53
2021/09/16 02:29:24;;;;;;;0.60;0.60;;;;;;;;;;5067721;28;20032;-54
2021/09/16 02:31:50;;;;;;;1.63;1.13;;;;;;;;;;5068029;28;20117;-54
2021/09/16 02:34:16;;;;;;;3.80;0.88;;;;;;;;;;5068147;28;20027;-53
2021/09/16 02:36:42;;;;;;;1.23;0.80;;;;;;;;;;5068097;28;20348;-54
2021/09/16 02:39:08;;;;;;;0.98;0.88;;;;;;;;;;5049923;28;20032;-52
2021/09/16 02:41:34;;;;;;;0.75;0.70;;;;;;;;;;5068070;28;20414;-52
2021/09/16 02:44:01;;;;;;;1.17;0.80;;;;;;;;;;5068131;28;20463;-53
2021/09/16 02:46:27;;;;;;;1.13;0.90;;;;;;;;;;5068135;28;20763;-54
2021/09/16 02:48:53;;;;;;;1.40;0.90;;;;;;;;;;5067670;28;20066;-54
2021/09/16 02:51:19;;;;;;;1.17;0.98;;;;;;;;;;5066448;28;20034;-53
2021/09/16 02:53:45;;;;;;;1.20;1.10;;;;;;;;;;5067613;28;20025;-52
2021/09/16 02:56:11;;;;;;;0.75;0.75;;;;;;;;;;5067508;28;20231;-53
2021/09/16 02:58:37;;;;;;;1.58;0.80;;;;;;;;;;5067561;28;20024;-53
2021/09/16 03:01:03;;;;;;;2.33;0.60;;;;;;;;;;5068036;28;20556;-54
2021/09/16 03:03:29;;;;;;;1.73;0.90;;;;;;;;;;5068161;28;20028;-53
2021/09/16 03:05:55;;;;;;;1.20;0.90;;;;;;;;;;5067167;28;20564;-52
2021/09/16 03:08:21;;;;;;;1.88;0.90;;;;;;;;;;5067395;28;20032;-53
2021/09/16 03:10:47;;;;;;;1.52;0.90;;;;;;;;;;5067276;28;20111;-54
2021/09/16 03:13:13;;;;;;;1.15;0.80;;;;;;;;;;5067453;28;20396;-52
2021/09/16 03:15:39;;;;;;;1.08;0.98;;;;;;;;;;5067388;28;20088;-52
2021/09/16 03:18:06;;;;;;;1.23;1.10;;;;;;;;;;5066708;28;20461;-52
2021/09/16 03:20:32;;;;;;;1.10;1.00;;;;;;;;;;5067712;28;20021;-52
2021/09/16 03:22:58;;;;;;;1.00;0.88;;;;;;;;;;5066606;28;20702;-54
2021/09/16 03:25:24;;;;;;;2.75;0.90;;;;;;;;;;5066723;28;20063;-53
2021/09/16 03:27:50;;;;;;;1.70;0.98;;;;;;;;;;5067090;28;20025;-53
2021/09/16 03:30:16;;;;;;;1.02;0.90;;;;;;;;;;5066964;28;20506;-53
2021/09/16 03:32:42;;;;;;;2.05;1.08;;;;;;;;;;5067073;28;20683;-54
2021/09/16 03:35:09;;;;;;;1.40;0.90;;;;;;;;;;5066944;28;20099;-50
2021/09/16 03:37:35;;;;;;;0.90;0.90;;;;;;;;;;5066600;28;20025;-53
2021/09/16 03:40:01;;;;;;;1.20;1.10;;;;;;;;;;5049413;28;20028;-51
2021/09/16 03:42:27;;;;;;;1.10;0.80;;;;;;;;;;5065773;28;20071;-54
2021/09/16 03:44:53;;;;;;;0.85;0.85;;;;;;;;;;5066784;28;20431;-53
2021/09/16 03:47:19;;;;;;;1.08;0.80;;;;;;;;;;5066229;28;20504;-53
2021/09/16 03:49:45;;;;;;;1.65;1.27;;;;;;;;;;5065819;28;20027;-53
2021/09/16 03:52:11;;;;;;;0.70;0.70;;;;;;;;;;5065923;28;20055;-54
2021/09/16 03:54:38;;;;;;;0.95;0.95;;;;;;;;;;5066467;28;20103;-53
2021/09/16 03:57:05;;;;;;;1.48;1.10;;;;;;;;;;5066173;28;20036;-53
2021/09/16 03:59:31;;;;;;;0.88;0.85;;;;;;;;;;5067123;28;20077;-53
2021/09/16 04:01:57;;;;;;;1.02;0.93;;;;;;;;;;5066451;28;20039;-53
2021/09/16 04:04:23;;;;;;;1.33;1.00;;;;;;;;;;5065768;28;20032;-52
2021/09/16 04:06:49;;;;;;;1.63;1.00;;;;;;;;;;5066396;28;20036;-51
2021/09/16 04:09:16;;;;;;;0.90;0.90;;;;;;;;;;5066249;28;20077;-52
2021/09/16 04:11:42;;;;;;;1.95;1.10;;;;;;;;;;5066299;28;20119;-52
2021/09/16 04:14:08;;;;;;;1.95;0.90;;;;;;;;;;5066062;28;20029;-52
2021/09/16 04:16:34;;;;;;;1.42;1.10;;;;;;;;;;5065421;28;20035;-53
2021/09/16 04:19:00;;;;;;;0.88;0.70;;;;;;;;;;5065094;28;20021;-54
2021/09/16 04:21:26;;;;;;;1.27;0.93;;;;;;;;;;5065836;28;20457;-54
2021/09/16 04:23:52;;;;;;;1.25;0.90;;;;;;;;;;5065445;28;20601;-55
2021/09/16 04:26:18;;;;;;;0.82;0.80;;;;;;;;;;5066458;28;20396;-52
2021/09/16 04:28:44;;;;;;;1.33;0.90;;;;;;;;;;5084090;28;20024;-54
2021/09/16 04:31:10;;;;;;;1.10;0.80;;;;;;;;;;5086010;28;20039;-54
2021/09/16 04:33:36;;;;;;;1.83;0.93;;;;;;;;;;5084414;28;20446;-51
2021/09/16 04:36:03;;;;;;;1.08;0.90;;;;;;;;;;5086056;28;20028;-53
2021/09/16 04:38:29;;;;;;;1.77;1.17;;;;;;;;;;5090555;28;20028;-50
2021/09/16 04:40:55;;;;;;;0.88;0.73;;;;;;;;;;5090150;28;20120;-53
2021/09/16 04:43:21;;;;;;;1.15;1.00;;;;;;;;;;5090397;28;20145;-52
2021/09/16 04:45:48;;;;;;;1.00;0.90;;;;;;;;;;5090331;28;20032;-51
2021/09/16 04:48:14;;;;;;;0.80;0.80;;;;;;;;;;5089708;28;20046;-52
2021/09/16 04:50:40;;;;;;;0.95;0.93;;;;;;;;;;5087085;28;20467;-52
2021/09/16 04:53:06;;;;;;;1.02;0.93;;;;;;;;;;5089861;28;20069;-51
2021/09/16 04:55:32;;;;;;;1.83;1.10;;;;;;;;;;5090638;28;20486;-52
2021/09/16 04:57:58;;;;;;;1.70;1.10;;;;;;;;;;5090285;28;20085;-53
2021/09/16 05:00:24;;;;;;;1.30;1.10;;;;;;;;;;5090195;28;20028;-51
2021/09/16 05:02:50;;;;;;;1.90;1.00;;;;;;;;;;5090155;28;20028;-53
2021/09/16 05:05:16;;;;;;;1.45;1.05;;;;;;;;;;5089848;28;20038;-53
2021/09/16 05:07:42;;;;;;;1.55;1.02;;;;;;;;;;5089973;28;20078;-52
2021/09/16 05:10:09;;;;;;;0.95;0.90;;;;;;;;;;5089628;28;20028;-52
2021/09/16 05:12:35;;;;;;;2.03;1.17;;;;;;;;;;5090031;28;20024;-52
2021/09/16 05:15:01;;;;;;;2.58;1.00;;;;;;;;;;5090009;28;20070;-54
2021/09/16 05:17:27;;;;;;;1.63;1.30;;;;;;;;;;5090292;28;20077;-52
2021/09/16 05:19:53;;;;;;;2.22;1.13;;;;;;;;;;5077626;28;20033;-53
2021/09/16 05:22:20;;;;;;;1.05;0.98;;;;;;;;;;5078854;28;20036;-52
2021/09/16 05:24:46;;;;;;;2.40;1.27;;;;;;;;;;5089647;28;20136;-52
2021/09/16 05:27:12;;;;;;;1.55;1.02;;;;;;;;;;5089153;28;20098;-53
2021/09/16 05:29:38;;;;;;;1.75;1.15;;;;;;;;;;5089533;28;20038;-51
2021/09/16 05:32:04;;;;;;;1.30;0.98;;;;;;;;;;5054869;28;20024;-50
2021/09/16 05:34:30;;;;;;;2.33;1.42;;;;;;;;;;5069377;28;20154;-53
2021/09/16 05:36:56;;;;;;;1.52;1.10;;;;;;;;;;5068898;28;20121;-53
2021/09/16 05:39:22;;;;;;;1.20;1.10;;;;;;;;;;5067388;28;20017;-50
2021/09/16 05:41:48;;;;;;;1.95;1.13;;;;;;;;;;5069439;28;20072;-52
2021/09/16 05:44:14;;;;;;;1.40;1.20;;;;;;;;;;5068641;28;20102;-53
2021/09/16 05:46:40;;;;;;;1.88;1.00;;;;;;;;;;5074428;28;20468;-53
2021/09/16 05:49:07;;;;;;;1.50;1.40;;;;;;;;;;5086900;28;20118;-51
2021/09/16 05:51:33;;;;;;;1.83;1.20;;;;;;;;;;5084483;28;20036;-53
2021/09/16 05:53:59;;;;;;;1.17;1.08;;;;;;;;;;5066476;28;20480;-54
2021/09/16 05:56:25;;;;;;;1.73;1.30;;;;;;;;;;5084514;28;20027;-54
2021/09/16 05:58:51;;;;;;;1.33;1.23;;;;;;;;;;5064443;28;20020;-51
2021/09/16 06:01:17;;;;;;;2.03;1.30;;;;;;;;;;5068018;28;20062;-55
2021/09/16 06:03:43;;;;;;;2.10;1.30;;;;;;;;;;5068560;28;20036;-54
2021/09/16 06:06:09;;;;;;;2.15;1.38;;;;;;;;;;5066676;28;20576;-54
2021/09/16 06:08:35;;;;;;;1.90;1.10;;;;;;;;;;5067743;28;20020;-53
2021/09/16 06:11:02;;;;;;;1.30;1.20;;;;;;;;;;5067076;28;20082;-53
2021/09/16 06:13:28;;;;;;;2.90;1.10;;;;;;;;;;5068362;28;20039;-54
2021/09/16 06:15:54;;;;;;;1.50;1.38;;;;;;;;;;5070241;28;20103;-54
2021/09/16 06:18:20;;;;;;;1.90;1.20;;;;;;;;;;5071991;28;20028;-54
2021/09/16 06:20:46;;;;;;;1.42;1.17;;;;;;;;;;5075233;28;20097;-54
2021/09/16 06:23:12;;;;;;;1.90;1.52;;;;;;;;;;5068715;28;20028;-53
2021/09/16 06:25:38;;;;;;;2.55;1.67;;;;;;;;;;5075930;28;20054;-52
2021/09/16 06:28:04;;;;;;;2.05;1.40;;;;;;;;;;5081474;28;20078;-52
2021/09/16 06:30:30;;;;;;;2.13;1.73;;;;;;;;;;5083700;28;20035;-52
2021/09/16 06:32:56;;;;;;;1.45;1.35;;;;;;;;;;5068317;28;20455;-51
2021/09/16 06:35:22;;;;;;;1.88;1.48;;;;;;;;;;5069553;28;20021;-50
2021/09/16 06:37:48;;;;;;;1.55;1.45;;;;;;;;;;5066483;28;20491;-53
2021/09/16 06:40:15;;;;;;;1.73;1.63;;;;;;;;;;5067133;28;20024;-51
2021/09/16 06:42:41;;;;;;;2.47;1.70;;;;;;;;;;5066255;28;20036;-53
2021/09/16 06:45:08;;;;;;;2.22;1.60;;;;;;;;;;5065551;28;20024;-50
2021/09/16 06:47:34;;;;;;;3.70;1.55;;;;;;;;;;5066008;28;20028;-51
2021/09/16 06:50:01;;;;;;;1.75;1.50;;;;;;;;;;5062130;28;20025;-50
2021/09/16 06:52:27;;;;;;;1.80;1.70;;;;;;;;;;5066669;28;20655;-52
2021/09/16 06:54:54;;;;;;;1.50;1.38;;;;;;;;;;5065404;28;20605;-53
2021/09/16 06:57:20;;;;;;;1.42;1.33;;;;;;;;;;5067065;28;20021;-53
2021/09/16 06:59:46;;;;;;;1.60;1.50;;;;;;;;;;5047685;28;20520;-53
2021/09/16 07:02:12;;;;;;;1.73;1.60;;;;;;;;;;5057204;28;20412;-52
2021/09/16 07:04:38;;;;;;;2.40;1.75;;;;;;;;;;5046401;28;20028;-51
2021/09/16 07:07:06;;;;;;;2.55;1.60;;;;;;;;;;5049918;28;20031;-52
2021/09/16 07:09:32;;;;;;;2.17;1.80;;;;;;;;;;5062902;28;20039;-53
2021/09/16 07:11:58;;;;;;;1.85;1.73;;;;;;;;;;5046074;28;20036;-54
2021/09/16 07:14:26;;;;;;;3.25;1.75;;;;;;;;;;5052345;28;20103;-52
2021/09/16 07:16:52;;;;;;;2.50;1.63;;;;;;;;;;5065968;28;20035;-54
2021/09/16 07:19:18;;;;;;;3.13;1.80;;;;;;;;;;5066617;28;20025;-52
2021/09/16 07:21:45;;;;;;;2.38;1.77;;;;;;;;;;5067098;28;20111;-53
2021/09/16 07:24:13;;;;;;;1.60;1.50;;;;;;;;;;5066251;28;20707;-53
2021/09/16 07:26:40;;;;;;;2.50;1.90;;;;;;;;;;5066492;28;20120;-54
2021/09/16 07:29:06;;;;;;;2.42;1.67;;;;;;;;;;5066008;28;20020;-53
2021/09/16 07:31:32;;;;;;;1.90;1.70;;;;;;;;;;5065939;28;20039;-53
2021/09/16 07:33:58;;;;;;;1.92;1.70;;;;;;;;;;5065841;28;20036;-53
2021/09/16 07:36:24;;;;;;;1.60;1.50;;;;;;;;;;5066336;28;20361;-52
2021/09/16 07:38:50;;;;;;;3.05;1.83;;;;;;;;;;5045750;28;20025;-51
2021/09/16 07:41:16;;;;;;;1.92;1.70;;;;;;;;;;5047106;28;20135;-50
2021/09/16 07:43:42;;;;;;;1.80;1.70;;;;;;;;;;5059971;28;20040;-51
2021/09/16 07:46:09;;;;;;;1.90;1.80;;;;;;;;;;5060200;28;20064;-53
2021/09/16 07:48:35;;;;;;;2.35;1.95;;;;;;;;;;5065513;28;20134;-54
2021/09/16 07:51:01;;;;;;;2.08;1.88;;;;;;;;;;5065291;28;20033;-53
2021/09/16 07:53:29;;;;;;;2.70;2.10;;;;;;;;;;5066387;28;20020;-52
2021/09/16 07:55:55;;;;;;;1.80;1.70;;;;;;;;;;5066121;28;20028;-51
2021/09/16 07:58:22;;;;;;;2.92;2.17;;;;;;;;;;5065420;28;20038;-50
2021/09/16 08:00:48;;;;;;;2.83;1.83;;;;;;;;;;5064447;28;20025;-51
2021/09/16 08:03:17;;;;;;;2.65;1.85;;;;;;;;;;5064771;28;20021;-53
2021/09/16 08:05:43;;;;;;;1.80;1.70;;;;;;;;;;5065902;28;20021;-54
2021/09/16 08:08:09;;;;;;;1.92;1.73;;;;;;;;;;5065791;28;20605;-54
2021/09/16 08:10:35;;;;;;;1.65;1.40;;;;;;;;;;5065419;28;20508;-52
2021/09/16 08:13:02;;;;;;;4.10;1.65;;;;;;;;;;5064713;28;20402;-51
2021/09/16 08:15:28;;;;;;;3.47;1.75;;;;;;;;;;5066306;28;20048;-52
2021/09/16 08:17:54;;;;;;;2.00;1.40;;;;;;;;;;5065482;28;20035;-51
2021/09/16 08:20:21;;;;;;;2.42;1.83;;;;;;;;;;5066014;28;20036;-51
2021/09/16 08:22:47;;;;;;;2.25;2.00;;;;;;;;;;5065758;28;20076;-54
2021/09/16 08:25:14;;;;;;;2.70;1.95;;;;;;;;;;5060866;28;20029;-53
2021/09/16 08:27:40;;;;;;;2.58;1.58;;;;;;;;;;5045578;28;20542;-53
2021/09/16 08:30:07;;;;;;;2.38;2.17;;;;;;;;;;5050784;28;20078;-51
2021/09/16 08:32:33;;;;;;;2.33;2.13;;;;;;;;;;5065176;28;20558;-52
2021/09/16 08:35:00;;;;;;;2.13;1.80;;;;;;;;;;5065879;28;20032;-52
2021/09/16 08:37:26;;;;;;;3.45;2.40;;;;;;;;;;5066524;28;20020;-53
2021/09/16 08:39:52;;;;;;;1.90;1.80;;;;;;;;;;5065303;28;20407;-53
2021/09/16 08:42:18;;;;;;;2.03;1.77;;;;;;;;;;5045806;28;20055;-52
2021/09/16 08:44:44;;;;;;;1.90;1.73;;;;;;;;;;5058353;28;20033;-54
2021/09/16 08:47:12;;;;;;;1.90;1.60;;;;;;;;;;5065275;28;20436;-51
2021/09/16 08:49:38;;;;;;;2.40;1.70;;;;;;;;;;5064015;28;20036;-53
2021/09/16 08:52:04;;;;;;;2.25;1.90;;;;;;;;;;5064361;28;20028;-54
2021/09/16 08:54:30;;;;;;;2.45;2.22;;;;;;;;;;5062394;28;20029;-52
2021/09/16 08:56:57;;;;;;;3.22;2.28;;;;;;;;;;5063954;28;20500;-53
2021/09/16 08:59:24;;;;;;;5.15;2.78;;;;;;;;;;5064664;28;20024;-53
2021/09/16 09:01:50;;;;;;;3.05;2.67;;;;;;;;;;5064567;28;20096;-54
2021/09/16 09:04:16;;;;;;;3.15;2.47;;;;;;;;;;5064539;28;20400;-53
2021/09/16 09:06:43;;;;;;;2.90;2.60;;;;;;;;;;5064521;28;20082;-51
2021/09/16 09:09:16;;;;;;;3.00;2.40;;;;;;;;;;5064110;28;20086;-51
2021/09/16 09:11:53;;;;;;;3.92;3.13;;;;;;;;;;5064362;28;20063;-54
2021/09/16 09:14:19;;;;;;;3.85;3.25;;;;;;;;;;5046243;28;20447;-55
2021/09/16 09:16:45;;;;;;;3.15;2.80;;;;;;;;;;5064610;28;20048;-54
2021/09/16 09:19:16;;;;;;;3.72;3.33;;;;;;;;;;5063895;28;20495;-53
2021/09/16 09:21:44;;;;;;;4.03;3.50;;;;;;;;;;5045885;28;20454;-54
2021/09/16 09:24:10;;;;;;;3.60;3.30;;;;;;;;;;5066878;28;20060;-53
2021/09/16 09:26:37;;;;;;;3.72;3.33;;;;;;;;;;5068007;28;20024;-52
2021/09/16 09:29:09;;;;;;;3.10;2.88;;;;;;;;;;5067632;28;20033;-51
2021/09/16 09:31:36;;;;;;;3.45;3.15;;;;;;;;;;5068038;28;20021;-52
2021/09/16 09:34:21;;;;;;;3.50;3.20;;;;;;;;;;5067422;28;20023;-53
2021/09/16 09:36:47;;;;;;;3.60;3.13;;;;;;;;;;5066472;28;20082;-52
2021/09/16 09:39:13;;;;;;;3.30;3.00;;;;;;;;;;5067901;28;20491;-50
2021/09/16 09:41:39;;;;;;;3.83;3.20;;;;;;;;;;5066867;28;20119;-53
2021/09/16 09:44:13;;;;;;;4.05;3.00;;;;;;;;;;5067356;28;20056;-51
2021/09/16 09:46:45;;;;;;;4.65;3.60;;;;;;;;;;5067201;28;20069;-55
2021/09/16 09:49:13;;;;;;;3.25;2.95;;;;;;;;;;5067500;28;20037;-53
2021/09/16 09:51:39;;;;;;;3.08;2.70;;;;;;;;;;5070759;28;20046;-55
2021/09/16 09:54:16;;;;;;;3.40;2.90;;;;;;;;;;5067479;28;20029;-54
2021/09/16 09:56:42;;;;;;;3.45;3.13;;;;;;;;;;5066664;28;20024;-55
2021/09/16 09:59:08;;;;;;;3.17;2.88;;;;;;;;;;5067703;28;20039;-55
2021/09/16 10:01:36;;;;;;;3.60;2.90;;;;;;;;;;5067020;28;20041;-54
2021/09/16 10:04:21;;;;;;;3.42;3.10;;;;;;;;;;5067031;28;20385;-54
2021/09/16 10:06:47;;;;;;;3.00;2.70;;;;;;;;;;5067608;28;20033;-55
2021/09/16 10:09:14;;;;;;;3.35;2.80;;;;;;;;;;5067543;28;20028;-54
2021/09/16 10:11:45;;;;;;;3.13;2.78;;;;;;;;;;5067644;28;20376;-55
2021/09/16 10:14:11;;;;;;;3.58;2.75;;;;;;;;;;5067427;28;20056;-54
2021/09/16 10:16:38;;;;;;;5.40;3.17;;;;;;;;;;5067154;28;20055;-54
2021/09/16 10:19:04;;;;;;;3.63;3.10;;;;;;;;;;5067252;28;20515;-54
2021/09/16 10:21:31;;;;;;;4.07;3.25;;;;;;;;;;5067385;28;20103;-55
2021/09/16 10:24:00;;;;;;;3.85;2.90;;;;;;;;;;5067504;28;20601;-54
2021/09/16 10:26:33;;;;;;;3.30;3.00;;;;;;;;;;5066341;28;20443;-53
2021/09/16 10:28:59;;;;;;;3.80;3.35;;;;;;;;;;5061210;28;20040;-54
2021/09/16 10:31:25;;;;;;;3.67;3.38;;;;;;;;;;5066960;28;20052;-54
2021/09/16 10:33:52;;;;;;;7.35;4.38;;;;;;;;;;5066993;28;20032;-54
2021/09/16 10:36:18;;;;;;;4.25;3.85;;;;;;;;;;5068037;28;20634;-56
2021/09/16 10:38:46;;;;;;;6.10;3.78;;;;;;;;;;5068711;28;20060;-55
2021/09/16 10:41:12;;;;;;;4.45;4.05;;;;;;;;;;5067160;28;20086;-55
2021/09/16 10:43:38;;;;;;;4.53;3.75;;;;;;;;;;5083816;28;20421;-55
2021/09/16 10:46:22;;;;;;;4.90;3.75;;;;;;;;;;5067381;28;20638;-54
2021/09/16 10:48:48;;;;;;;;;;;;;;;;;;5075780;28;20036;-55
2021/09/16 10:51:15;;;;;;;3.45;2.92;;;;;;;;;;5067265;28;19919;-56
2021/09/16 10:53:43;;;;;;;3.20;2.95;;;;;;;;;;5068038;28;20025;-55
2021/09/16 10:56:28;;;;;;;3.83;3.42;;;;;;;;;;5067940;28;20055;-56
2021/09/16 10:58:54;;;;;;;3.47;3.13;;;;;;;;;;5068087;28;20064;-56
2021/09/16 11:01:39;;;;;;;3.55;3.25;;;;;;;;;;5067242;28;20434;-55
2021/09/16 11:04:07;;;;;;;2.97;2.78;;;;;;;;;;5060226;28;20028;-54
2021/09/16 11:06:43;;;;;;;2.80;2.45;;;;;;;;;;5068127;28;20051;-56
2021/09/16 11:09:09;;;;;;;3.55;3.25;;;;;;;;;;5054309;28;20032;-56
2021/09/16 11:12:11;;;;;;;3.78;3.20;;;;;;;;;;5068012;28;20041;-56
2021/09/16 11:14:40;;;;;;;2.97;2.67;;;;;;;;;;4985528;28;20058;-55
2021/09/16 11:17:07;;;;;;;3.05;2.75;;;;;;;;;;5033286;28;20102;-57
2021/09/16 11:19:33;;;;;;;3.70;2.65;;;;;;;;;;5046494;28;20120;-56
2021/09/16 11:22:00;;;;;;;2.22;2.13;;;;;;;;;;5048174;28;20705;-55
2021/09/16 11:24:30;;;;;;;2.40;2.20;;;;;;;;;;5066869;28;20028;-57
2021/09/16 11:26:56;;;;;;;2.40;2.20;;;;;;;;;;5066344;28;20110;-56
2021/09/16 11:29:22;;;;;;;2.20;2.03;;;;;;;;;;5067002;28;20103;-56
2021/09/16 11:31:48;;;;;;;3.03;2.72;;;;;;;;;;5067267;28;20040;-56
2021/09/16 11:34:17;;;;;;;2.50;2.30;;;;;;;;;;5066679;28;20028;-56
2021/09/16 11:37:22;;;;;;;2.50;2.30;;;;;;;;;;5067300;28;20020;-57
2021/09/16 11:40:00;;;;;;;2.40;2.20;;;;;;;;;;4996954;28;20138;-57
2021/09/16 11:42:28;;;;;;;2.22;2.03;;;;;;;;;;5076696;28;20036;-57
2021/09/16 11:44:58;;;;;;;2.47;2.22;;;;;;;;;;5066164;28;20036;-56
2021/09/16 11:47:25;;;;;;;2.83;2.53;;;;;;;;;;5065394;28;20032;-57
2021/09/16 11:49:51;;;;;;;3.35;2.70;;;;;;;;;;5066517;28;21573;-57
2021/09/16 11:52:19;;;;;;;3.05;2.75;;;;;;;;;;5082732;28;20034;-56
2021/09/16 11:55:03;;;;;;;3.55;3.25;;;;;;;;;;5087764;28;20066;-56
2021/09/16 11:57:29;;;;;;;;;;;;;;;;;;5088925;28;20050;-56
2021/09/16 11:59:55;;;;;;;3.40;3.10;;;;;;;;;;5076888;28;19908;-57
2021/09/16 12:02:22;;;;;;;3.03;2.67;;;;;;;;;;5066165;28;20050;-56
2021/09/16 12:04:49;;;;;;;3.33;2.97;;;;;;;;;;5064153;28;20545;-56
2021/09/16 12:07:18;;;;;;;2.45;2.25;;;;;;;;;;5065626;28;20071;-56
2021/09/16 12:09:44;;;;;;;2.38;2.17;;;;;;;;;;5066232;28;20025;-56
2021/09/16 12:12:11;;;;;;;2.55;2.33;;;;;;;;;;5066096;28;20381;-56
2021/09/16 12:14:37;;;;;;;3.20;2.53;;;;;;;;;;5065782;28;20431;-56
2021/09/16 12:17:04;;;;;;;3.78;3.08;;;;;;;;;;5065549;28;20191;-56
2021/09/16 12:19:31;;;;;;;2.70;2.50;;;;;;;;;;5066261;28;20031;-56
2021/09/16 12:21:58;;;;;;;3.65;2.90;;;;;;;;;;5066456;28;20059;-55
2021/09/16 12:24:28;;;;;;;3.13;2.67;;;;;;;;;;5066087;28;20024;-56
2021/09/16 12:26:55;;;;;;;2.53;2.33;;;;;;;;;;5065824;28;20056;-56
2021/09/16 12:29:26;;;;;;;2.60;2.30;;;;;;;;;;5065977;28;20087;-56
2021/09/16 12:32:03;;;;;;;2.72;2.30;;;;;;;;;;5065453;28;20031;-56
2021/09/16 12:34:39;;;;;;;2.63;2.15;;;;;;;;;;5066364;28;20086;-56
2021/09/16 12:37:14;;;;;;;1.83;1.70;;;;;;;;;;5065924;28;20055;-56
2021/09/16 12:39:54;;;;;;;2.38;2.17;;;;;;;;;;5065514;28;20063;-55
2021/09/16 12:42:41;;;;;;;1.90;1.80;;;;;;;;;;5048203;28;20453;-56
2021/09/16 12:45:09;;;;;;;2.35;2.00;;;;;;;;;;5065540;28;20032;-56
2021/09/16 12:47:44;;;;;;;2.00;1.85;;;;;;;;;;5065658;28;20025;-57
2021/09/16 12:50:10;;;;;;;2.03;1.83;;;;;;;;;;5065460;28;20054;-56
2021/09/16 12:52:36;;;;;;;1.60;1.50;;;;;;;;;;5065864;28;20399;-57
2021/09/16 12:55:05;;;;;;;1.85;1.75;;;;;;;;;;5065210;28;20031;-56
2021/09/16 12:57:32;;;;;;;1.60;1.50;;;;;;;;;;5066600;28;20020;-56
2021/09/16 12:59:59;;;;;;;2.40;1.65;;;;;;;;;;5069946;28;20059;-57
2021/09/16 13:02:27;;;;;;;1.60;1.50;;;;;;;;;;5069712;28;20025;-56
2021/09/16 13:04:56;;;;;;;1.48;1.38;;;;;;;;;;5067602;28;20040;-56
2021/09/16 13:07:24;;;;;;;2.90;1.25;;;;;;;;;;5069044;28;20451;-57
2021/09/16 13:09:50;;;;;;;2.55;1.65;;;;;;;;;;5069345;28;20025;-56
2021/09/16 13:12:18;;;;;;;1.55;1.30;;;;;;;;;;5069469;28;20466;-56
2021/09/16 13:14:44;;;;;;;1.83;1.60;;;;;;;;;;5069148;28;20100;-56
2021/09/16 13:17:11;;;;;;;2.75;1.50;;;;;;;;;;5068963;28;20058;-56
2021/09/16 13:19:37;;;;;;;1.70;1.50;;;;;;;;;;5069343;28;20403;-56
2021/09/16 13:22:04;;;;;;;1.38;1.27;;;;;;;;;;5068802;28;20036;-57
2021/09/16 13:24:30;;;;;;;2.00;1.73;;;;;;;;;;5081806;28;20032;-57
2021/09/16 13:26:56;;;;;;;1.65;1.50;;;;;;;;;;5090574;28;20031;-56
2021/09/16 13:29:22;;;;;;;1.60;1.50;;;;;;;;;;5069618;28;20500;-56
2021/09/16 13:31:49;;;;;;;1.50;1.40;;;;;;;;;;5056788;28;20029;-56
2021/09/16 13:34:15;;;;;;;3.00;1.60;;;;;;;;;;5048828;28;20086;-56
2021/09/16 13:36:41;;;;;;;4.03;2.30;;;;;;;;;;5065395;28;20395;-56
2021/09/16 13:39:07;;;;;;;2.85;2.55;;;;;;;;;;5068823;28;20028;-56
2021/09/16 13:41:33;;;;;;;2.55;2.33;;;;;;;;;;5071467;28;20037;-57
2021/09/16 13:43:59;;;;;;;2.78;2.28;;;;;;;;;;5054944;28;20037;-57
2021/09/16 13:46:25;;;;;;;2.85;2.40;;;;;;;;;;5058894;28;20033;-53
2021/09/16 13:48:51;;;;;;;2.95;2.00;;;;;;;;;;5084547;28;20028;-51
2021/09/16 13:51:17;;;;;;;2.35;1.80;;;;;;;;;;5068231;28;20024;-53
2021/09/16 13:53:44;;;;;;;1.88;1.77;;;;;;;;;;5068611;28;20024;-50
2021/09/16 13:56:10;;;;;;;1.92;1.80;;;;;;;;;;5068320;28;20024;-49
2021/09/16 13:58:37;;;;;;;2.17;1.88;;;;;;;;;;5077970;28;20047;-50
2021/09/16 14:01:04;;;;;;;1.30;1.08;;;;;;;;;;5066617;28;20091;-50
2021/09/16 14:03:30;;;;;;;1.38;1.27;;;;;;;;;;5067642;28;20075;-53
2021/09/16 14:05:56;;;;;;;0.95;0.95;;;;;;;;;;5067455;28;20024;-49
2021/09/16 14:08:23;;;;;;;1.10;1.00;;;;;;;;;;5067448;28;20023;-49
2021/09/16 14:10:49;;;;;;;1.00;0.90;;;;;;;;;;5067668;28;20064;-49
2021/09/16 14:13:15;;;;;;;1.27;1.00;;;;;;;;;;5066314;28;20036;-52
2021/09/16 14:15:42;;;;;;;1.33;1.20;;;;;;;;;;5080869;28;20477;-49
2021/09/16 14:18:08;;;;;;;0.85;0.85;;;;;;;;;;5066337;28;20087;-49
2021/09/16 14:20:34;;;;;;;1.17;1.08;;;;;;;;;;5069008;28;20043;-51
2021/09/16 14:23:00;;;;;;;1.10;0.95;;;;;;;;;;5066194;28;20039;-52
2021/09/16 14:25:26;;;;;;;1.25;1.15;;;;;;;;;;5068756;28;20456;-48
2021/09/16 14:27:52;;;;;;;2.05;1.50;;;;;;;;;;5066353;28;20096;-49
2021/09/16 14:30:18;;;;;;;1.30;1.20;;;;;;;;;;5066578;28;20059;-50
2021/09/16 14:32:44;;;;;;;1.42;1.30;;;;;;;;;;5066935;28;20064;-49
2021/09/16 14:35:10;;;;;;;1.67;1.30;;;;;;;;;;5063126;28;20036;-52
2021/09/16 14:37:37;;;;;;;1.42;1.20;;;;;;;;;;5067835;28;20035;-52
2021/09/16 14:40:04;;;;;;;1.77;1.38;;;;;;;;;;5083266;28;20232;-52
2021/09/16 14:42:30;;;;;;;2.15;1.10;;;;;;;;;;5069480;28;20192;-51